sensor_id;sensor_type;location;lat;lon;timestamp;pressure;altitude;pressure_sealevel;temperature;humidity
69524;BME280;56723;42.694;23.286;2023-02-22T00:01:34;95054.91;;;8.12;45.04
69524;BME280;56723;42.694;23.286;2023-02-22T00:04:03;95060.50;;;8.08;45.55
69524;BME280;56723;42.694;23.286;2023-02-22T00:06:31;95061.09;;;8.02;45.66
69524;BME280;56723;42.694;23.286;2023-02-22T00:08:59;95066.88;;;7.95;46.02
69524;BME280;56723;42.694;23.286;2023-02-22T00:11:28;95063.75;;;7.92;45.83
69524;BME280;56723;42.694;23.286;2023-02-22T00:13:57;95065.81;;;7.88;46.23
69524;BME280;56723;42.694;23.286;2023-02-22T00:16:25;95065.28;;;7.85;46.08
69524;BME280;56723;42.694;23.286;2023-02-22T00:18:52;95062.34;;;7.80;46.19
69524;BME280;56723;42.694;23.286;2023-02-22T00:21:19;95059.69;;;7.72;46.65
69524;BME280;56723;42.694;23.286;2023-02-22T00:23:47;95056.06;;;7.64;47.07
69524;BME280;56723;42.694;23.286;2023-02-22T00:26:19;95055.19;;;7.56;47.63
69524;BME280;56723;42.694;23.286;2023-02-22T00:28:51;95059.44;;;7.47;47.73
69524;BME280;56723;42.694;23.286;2023-02-22T00:31:19;95061.63;;;7.42;48.13
69524;BME280;56723;42.694;23.286;2023-02-22T00:33:48;95055.84;;;7.40;48.47
69524;BME280;56723;42.694;23.286;2023-02-22T00:36:16;95056.84;;;7.29;48.73
69524;BME280;56723;42.694;23.286;2023-02-22T00:38:43;95047.13;;;7.23;49.06
69524;BME280;56723;42.694;23.286;2023-02-22T00:41:10;95048.63;;;7.16;49.33
69524;BME280;56723;42.694;23.286;2023-02-22T00:43:37;95050.25;;;7.17;49.15
69524;BME280;56723;42.694;23.286;2023-02-22T00:46:04;95046.91;;;7.07;50.07
69524;BME280;56723;42.694;23.286;2023-02-22T00:48:31;95040.59;;;7.02;50.50
69524;BME280;56723;42.694;23.286;2023-02-22T00:50:58;95046.16;;;6.97;50.46
69524;BME280;56723;42.694;23.286;2023-02-22T00:53:25;95046.28;;;6.95;50.89
69524;BME280;56723;42.694;23.286;2023-02-22T00:55:52;95039.66;;;6.93;50.79
69524;BME280;56723;42.694;23.286;2023-02-22T00:58:20;95029.34;;;6.93;51.07
69524;BME280;56723;42.694;23.286;2023-02-22T01:00:48;95032.25;;;6.80;51.80
69524;BME280;56723;42.694;23.286;2023-02-22T01:03:18;95037.13;;;6.83;51.54
69524;BME280;56723;42.694;23.286;2023-02-22T01:05:46;95026.84;;;6.83;51.31
69524;BME280;56723;42.694;23.286;2023-02-22T01:08:15;95038.63;;;6.86;51.06
69524;BME280;56723;42.694;23.286;2023-02-22T01:10:43;95022.50;;;6.84;51.11
69524;BME280;56723;42.694;23.286;2023-02-22T01:13:11;95027.50;;;6.85;51.83
69524;BME280;56723;42.694;23.286;2023-02-22T01:15:41;95030.22;;;6.84;51.71
69524;BME280;56723;42.694;23.286;2023-02-22T01:18:09;95023.59;;;6.81;51.47
69524;BME280;56723;42.694;23.286;2023-02-22T01:20:38;95017.91;;;6.78;51.69
69524;BME280;56723;42.694;23.286;2023-02-22T01:23:06;95025.75;;;6.76;51.98
69524;BME280;56723;42.694;23.286;2023-02-22T01:25:34;95025.22;;;6.73;52.31
69524;BME280;56723;42.694;23.286;2023-02-22T01:28:03;95023.59;;;6.72;51.89
69524;BME280;56723;42.694;23.286;2023-02-22T01:30:32;95022.28;;;6.68;52.48
69524;BME280;56723;42.694;23.286;2023-02-22T01:33:00;95020.13;;;6.63;52.82
69524;BME280;56723;42.694;23.286;2023-02-22T01:35:30;95027.59;;;6.56;53.54
69524;BME280;56723;42.694;23.286;2023-02-22T01:37:57;95021.78;;;6.54;53.07
69524;BME280;56723;42.694;23.286;2023-02-22T01:40:33;95022.34;;;6.48;53.70
69524;BME280;56723;42.694;23.286;2023-02-22T01:43:24;95023.84;;;6.41;55.99
69524;BME280;56723;42.694;23.286;2023-02-22T01:48:49;95020.09;;;6.16;56.91
69524;BME280;56723;42.694;23.286;2023-02-22T01:51:20;95028.81;;;6.06;57.13
69524;BME280;56723;42.694;23.286;2023-02-22T01:56:16;95024.59;;;5.85;57.71
69524;BME280;56723;42.694;23.286;2023-02-22T01:58:48;95021.19;;;5.75;58.36
69524;BME280;56723;42.694;23.286;2023-02-22T02:01:18;95021.88;;;5.68;58.68
69524;BME280;56723;42.694;23.286;2023-02-22T02:03:45;95024.03;;;5.63;58.27
69524;BME280;56723;42.694;23.286;2023-02-22T02:06:15;95028.63;;;5.59;58.71
69524;BME280;56723;42.694;23.286;2023-02-22T02:08:53;95029.44;;;5.40;59.35
69524;BME280;56723;42.694;23.286;2023-02-22T02:11:24;95039.19;;;5.37;59.68
69524;BME280;56723;42.694;23.286;2023-02-22T02:13:54;95030.78;;;5.35;59.44
69524;BME280;56723;42.694;23.286;2023-02-22T02:16:22;95028.22;;;5.35;59.83
69524;BME280;56723;42.694;23.286;2023-02-22T02:18:50;95024.84;;;5.34;59.94
69524;BME280;56723;42.694;23.286;2023-02-22T02:21:38;95032.41;;;5.36;59.62
69524;BME280;56723;42.694;23.286;2023-02-22T02:27:17;95040.50;;;5.41;59.50
69524;BME280;56723;42.694;23.286;2023-02-22T02:35:34;95040.81;;;5.38;59.58
69524;BME280;56723;42.694;23.286;2023-02-22T02:40:53;95046.22;;;5.35;59.85
69524;BME280;56723;42.694;23.286;2023-02-22T02:43:31;95043.50;;;5.36;59.66
69524;BME280;56723;42.694;23.286;2023-02-22T02:48:33;95049.16;;;5.30;60.25
69524;BME280;56723;42.694;23.286;2023-02-22T02:51:04;95045.34;;;5.25;60.43
69524;BME280;56723;42.694;23.286;2023-02-22T02:53:36;95048.72;;;5.15;61.04
69524;BME280;56723;42.694;23.286;2023-02-22T02:56:17;95050.56;;;5.04;61.19
69524;BME280;56723;42.694;23.286;2023-02-22T02:58:49;95051.25;;;4.96;60.51
69524;BME280;56723;42.694;23.286;2023-02-22T03:06:59;95057.13;;;4.87;61.57
69524;BME280;56723;42.694;23.286;2023-02-22T03:14:39;95067.13;;;4.80;61.97
69524;BME280;56723;42.694;23.286;2023-02-22T03:19:50;95055.25;;;4.79;62.13
69524;BME280;56723;42.694;23.286;2023-02-22T03:22:25;95057.94;;;4.78;61.84
69524;BME280;56723;42.694;23.286;2023-02-22T03:25:07;95047.66;;;4.78;61.88
69524;BME280;56723;42.694;23.286;2023-02-22T03:27:48;95052.09;;;4.76;62.66
69524;BME280;56723;42.694;23.286;2023-02-22T03:30:25;95051.41;;;4.74;62.11
69524;BME280;56723;42.694;23.286;2023-02-22T03:32:59;95052.22;;;4.74;62.20
69524;BME280;56723;42.694;23.286;2023-02-22T03:35:32;95050.47;;;4.75;62.39
69524;BME280;56723;42.694;23.286;2023-02-22T03:38:05;95056.31;;;4.77;62.44
69524;BME280;56723;42.694;23.286;2023-02-22T03:40:38;95041.16;;;4.74;62.39
69524;BME280;56723;42.694;23.286;2023-02-22T03:43:13;95046.53;;;4.71;62.55
69524;BME280;56723;42.694;23.286;2023-02-22T03:45:44;95048.84;;;4.74;62.45
69524;BME280;56723;42.694;23.286;2023-02-22T03:48:29;95050.22;;;4.78;62.24
69524;BME280;56723;42.694;23.286;2023-02-22T03:51:02;95045.78;;;4.80;61.69
69524;BME280;56723;42.694;23.286;2023-02-22T03:53:33;95044.84;;;4.81;61.70
69524;BME280;56723;42.694;23.286;2023-02-22T03:56:06;95060.41;;;4.89;61.48
69524;BME280;56723;42.694;23.286;2023-02-22T03:58:37;95055.00;;;4.92;61.75
69524;BME280;56723;42.694;23.286;2023-02-22T04:01:05;95048.81;;;4.95;61.31
69524;BME280;56723;42.694;23.286;2023-02-22T04:03:33;95048.53;;;4.98;61.38
69524;BME280;56723;42.694;23.286;2023-02-22T04:06:00;95050.19;;;4.99;61.59
69524;BME280;56723;42.694;23.286;2023-02-22T04:08:28;95042.34;;;5.00;61.53
69524;BME280;56723;42.694;23.286;2023-02-22T04:10:55;95047.59;;;4.99;61.26
69524;BME280;56723;42.694;23.286;2023-02-22T04:13:25;95042.84;;;4.94;61.61
69524;BME280;56723;42.694;23.286;2023-02-22T04:15:53;95048.00;;;4.94;61.50
69524;BME280;56723;42.694;23.286;2023-02-22T04:18:21;95055.00;;;4.92;61.67
69524;BME280;56723;42.694;23.286;2023-02-22T04:20:48;95052.69;;;4.89;62.11
69524;BME280;56723;42.694;23.286;2023-02-22T04:23:29;95053.50;;;4.90;62.21
69524;BME280;56723;42.694;23.286;2023-02-22T04:25:57;95050.63;;;4.83;62.45
69524;BME280;56723;42.694;23.286;2023-02-22T04:28:24;95056.75;;;4.82;62.65
69524;BME280;56723;42.694;23.286;2023-02-22T04:31:01;95057.69;;;4.81;62.71
69524;BME280;56723;42.694;23.286;2023-02-22T04:33:28;95064.81;;;4.77;63.23
69524;BME280;56723;42.694;23.286;2023-02-22T04:35:55;95056.69;;;4.72;63.05
69524;BME280;56723;42.694;23.286;2023-02-22T04:38:24;95058.44;;;4.72;63.77
69524;BME280;56723;42.694;23.286;2023-02-22T04:40:53;95064.50;;;4.71;63.63
69524;BME280;56723;42.694;23.286;2023-02-22T04:43:21;95065.69;;;4.67;64.02
69524;BME280;56723;42.694;23.286;2023-02-22T04:45:51;95065.97;;;4.64;63.74
69524;BME280;56723;42.694;23.286;2023-02-22T04:48:18;95056.78;;;4.61;64.16
69524;BME280;56723;42.694;23.286;2023-02-22T04:50:45;95062.16;;;4.58;64.41
69524;BME280;56723;42.694;23.286;2023-02-22T04:53:13;95060.22;;;4.50;67.14
69524;BME280;56723;42.694;23.286;2023-02-22T04:55:40;95062.50;;;4.44;66.71
69524;BME280;56723;42.694;23.286;2023-02-22T04:58:08;95060.31;;;4.39;66.81
69524;BME280;56723;42.694;23.286;2023-02-22T05:00:36;95057.75;;;4.39;66.27
69524;BME280;56723;42.694;23.286;2023-02-22T05:03:03;95065.81;;;4.35;65.90
69524;BME280;56723;42.694;23.286;2023-02-22T05:05:30;95060.09;;;4.31;65.55
69524;BME280;56723;42.694;23.286;2023-02-22T05:07:56;95065.38;;;4.30;66.19
69524;BME280;56723;42.694;23.286;2023-02-22T06:04:22;95125.97;;;3.78;69.80
69524;BME280;56723;42.694;23.286;2023-02-22T06:06:49;95118.84;;;3.81;68.52
69524;BME280;56723;42.694;23.286;2023-02-22T06:09:16;95116.75;;;3.87;67.73
69524;BME280;56723;42.694;23.286;2023-02-22T06:11:43;95125.91;;;4.00;67.09
69524;BME280;56723;42.694;23.286;2023-02-22T06:14:10;95126.09;;;4.08;67.00
69524;BME280;56723;42.694;23.286;2023-02-22T06:16:37;95127.22;;;4.15;66.08
69524;BME280;56723;42.694;23.286;2023-02-22T06:19:04;95129.19;;;4.23;65.71
69524;BME280;56723;42.694;23.286;2023-02-22T06:21:31;95127.19;;;4.27;65.85
69524;BME280;56723;42.694;23.286;2023-02-22T06:23:57;95117.34;;;4.32;65.78
69524;BME280;56723;42.694;23.286;2023-02-22T06:26:24;95116.06;;;4.37;65.58
69524;BME280;56723;42.694;23.286;2023-02-22T06:28:51;95121.34;;;4.45;65.20
69524;BME280;56723;42.694;23.286;2023-02-22T06:31:18;95124.69;;;4.57;64.83
69524;BME280;56723;42.694;23.286;2023-02-22T06:33:45;95121.09;;;4.69;63.87
69524;BME280;56723;42.694;23.286;2023-02-22T06:36:12;95121.97;;;4.79;62.97
69524;BME280;56723;42.694;23.286;2023-02-22T07:13:26;95113.25;;;6.20;56.69
69524;BME280;56723;42.694;23.286;2023-02-22T07:15:53;95112.16;;;6.32;56.45
69524;BME280;56723;42.694;23.286;2023-02-22T07:18:20;95110.69;;;6.49;55.78
69524;BME280;56723;42.694;23.286;2023-02-22T07:20:47;95119.06;;;6.60;54.67
69524;BME280;56723;42.694;23.286;2023-02-22T07:23:15;95108.22;;;6.67;54.44
69524;BME280;56723;42.694;23.286;2023-02-22T07:25:42;95116.44;;;6.80;54.00
69524;BME280;56723;42.694;23.286;2023-02-22T07:28:09;95117.88;;;6.92;53.25
69524;BME280;56723;42.694;23.286;2023-02-22T07:30:37;95116.78;;;7.04;53.07
69524;BME280;56723;42.694;23.286;2023-02-22T07:33:06;95113.06;;;7.16;52.40
69524;BME280;56723;42.694;23.286;2023-02-22T07:35:36;95116.53;;;7.25;51.91
69524;BME280;56723;42.694;23.286;2023-02-22T07:38:05;95107.69;;;7.37;52.32
69524;BME280;56723;42.694;23.286;2023-02-22T07:40:35;95106.59;;;7.40;51.47
69524;BME280;56723;42.694;23.286;2023-02-22T07:43:03;95105.72;;;7.49;51.25
69524;BME280;56723;42.694;23.286;2023-02-22T07:45:34;95102.41;;;7.56;51.00
69524;BME280;56723;42.694;23.286;2023-02-22T07:48:02;95099.78;;;7.66;50.97
69524;BME280;56723;42.694;23.286;2023-02-22T07:50:31;95103.63;;;7.80;50.84
69524;BME280;56723;42.694;23.286;2023-02-22T07:53:00;95102.03;;;7.96;50.61
69524;BME280;56723;42.694;23.286;2023-02-22T07:55:28;95105.41;;;8.15;49.13
69524;BME280;56723;42.694;23.286;2023-02-22T07:57:59;95100.28;;;8.32;49.00
69524;BME280;56723;42.694;23.286;2023-02-22T08:18:55;95080.78;;;9.66;45.32
69524;BME280;56723;42.694;23.286;2023-02-22T08:21:22;95083.09;;;9.85;44.98
69524;BME280;56723;42.694;23.286;2023-02-22T08:23:51;95081.19;;;10.12;44.01
69524;BME280;56723;42.694;23.286;2023-02-22T08:26:20;95082.53;;;10.56;43.18
69524;BME280;56723;42.694;23.286;2023-02-22T08:28:47;95079.88;;;10.89;42.24
69524;BME280;56723;42.694;23.286;2023-02-22T08:31:14;95074.75;;;11.28;41.41
69524;BME280;56723;42.694;23.286;2023-02-22T08:33:42;95081.00;;;11.50;40.50
69524;BME280;56723;42.694;23.286;2023-02-22T08:36:09;95072.47;;;11.64;39.89
69524;BME280;56723;42.694;23.286;2023-02-22T08:38:35;95071.44;;;11.81;39.89
69524;BME280;56723;42.694;23.286;2023-02-22T08:41:03;95077.22;;;12.14;39.09
69524;BME280;56723;42.694;23.286;2023-02-22T08:43:30;95068.59;;;12.59;38.33
69524;BME280;56723;42.694;23.286;2023-02-22T08:45:57;95066.22;;;13.02;37.46
69524;BME280;56723;42.694;23.286;2023-02-22T08:48:24;95058.97;;;13.41;37.19
69524;BME280;56723;42.694;23.286;2023-02-22T08:50:51;95059.66;;;13.65;36.70
69524;BME280;56723;42.694;23.286;2023-02-22T08:53:18;95052.00;;;13.78;37.02
69524;BME280;56723;42.694;23.286;2023-02-22T08:55:45;95053.47;;;14.02;36.95
69524;BME280;56723;42.694;23.286;2023-02-22T08:58:12;95054.41;;;14.58;35.61
69524;BME280;56723;42.694;23.286;2023-02-22T09:00:40;95044.56;;;14.81;35.00
69524;BME280;56723;42.694;23.286;2023-02-22T09:03:10;95051.47;;;14.96;34.88
69524;BME280;56723;42.694;23.286;2023-02-22T09:05:40;95043.38;;;15.18;34.35
69524;BME280;56723;42.694;23.286;2023-02-22T09:08:07;95049.00;;;15.22;34.16
69524;BME280;56723;42.694;23.286;2023-02-22T09:10:34;95036.84;;;15.42;33.64
69524;BME280;56723;42.694;23.286;2023-02-22T09:13:02;95035.75;;;15.58;33.67
69524;BME280;56723;42.694;23.286;2023-02-22T09:15:30;95041.81;;;15.72;33.69
69524;BME280;56723;42.694;23.286;2023-02-22T09:17:58;95039.03;;;15.80;33.82
69524;BME280;56723;42.694;23.286;2023-02-22T09:20:25;95027.38;;;15.82;33.40
69524;BME280;56723;42.694;23.286;2023-02-22T09:22:52;95033.78;;;15.73;33.57
69524;BME280;56723;42.694;23.286;2023-02-22T09:25:20;95036.38;;;15.67;33.42
69524;BME280;56723;42.694;23.286;2023-02-22T09:27:48;95035.75;;;15.65;33.36
69524;BME280;56723;42.694;23.286;2023-02-22T09:30:24;95028.53;;;15.67;33.57
69524;BME280;56723;42.694;23.286;2023-02-22T09:32:53;95024.13;;;15.67;33.69
69524;BME280;56723;42.694;23.286;2023-02-22T09:35:21;95023.75;;;15.83;33.36
69524;BME280;56723;42.694;23.286;2023-02-22T09:37:58;95028.00;;;15.98;33.11
69524;BME280;56723;42.694;23.286;2023-02-22T09:40:28;95031.25;;;16.06;33.52
69524;BME280;56723;42.694;23.286;2023-02-22T09:45:31;95015.81;;;16.31;33.20
69524;BME280;56723;42.694;23.286;2023-02-22T09:48:05;95019.44;;;16.43;33.12
69524;BME280;56723;42.694;23.286;2023-02-22T09:50:48;95019.81;;;16.40;32.30
69524;BME280;56723;42.694;23.286;2023-02-22T09:55:59;95013.78;;;16.13;32.88
69524;BME280;56723;42.694;23.286;2023-02-22T09:58:30;95019.41;;;16.37;33.63
69524;BME280;56723;42.694;23.286;2023-02-22T10:04:00;95004.94;;;16.80;32.03
69524;BME280;56723;42.694;23.286;2023-02-22T10:06:30;95002.91;;;16.89;31.89
69524;BME280;56723;42.694;23.286;2023-02-22T10:09:00;94998.09;;;16.86;32.24
69524;BME280;56723;42.694;23.286;2023-02-22T10:11:50;95001.69;;;17.05;32.19
69524;BME280;56723;42.694;23.286;2023-02-22T10:24:43;94959.41;;;17.90;30.35
69524;BME280;56723;42.694;23.286;2023-02-22T10:27:21;94956.78;;;17.97;30.50
69524;BME280;56723;42.694;23.286;2023-02-22T10:29:52;94950.50;;;17.98;30.06
69524;BME280;56723;42.694;23.286;2023-02-22T10:32:25;94945.53;;;17.83;29.97
69524;BME280;56723;42.694;23.286;2023-02-22T10:34:55;94941.53;;;18.12;29.88
69524;BME280;56723;42.694;23.286;2023-02-22T10:37:25;94929.19;;;18.38;30.14
69524;BME280;56723;42.694;23.286;2023-02-22T10:40:19;94932.56;;;18.45;30.31
69524;BME280;56723;42.694;23.286;2023-02-22T10:42:45;94930.97;;;18.19;30.48
69524;BME280;56723;42.694;23.286;2023-02-22T10:45:25;94925.91;;;17.99;30.11
69524;BME280;56723;42.694;23.286;2023-02-22T10:47:54;94926.38;;;17.83;30.84
69524;BME280;56723;42.694;23.286;2023-02-22T10:50:27;94911.84;;;17.87;30.44
69524;BME280;56723;42.694;23.286;2023-02-22T10:52:55;94906.03;;;18.10;30.47
69524;BME280;56723;42.694;23.286;2023-02-22T10:55:22;94904.84;;;18.30;30.61
69524;BME280;56723;42.694;23.286;2023-02-22T10:57:50;94904.47;;;18.52;30.26
69524;BME280;56723;42.694;23.286;2023-02-22T11:00:31;94900.72;;;18.66;29.62
69524;BME280;56723;42.694;23.286;2023-02-22T11:03:19;94897.66;;;18.69;29.29
69524;BME280;56723;42.694;23.286;2023-02-22T11:05:47;94894.66;;;18.65;30.53
69524;BME280;56723;42.694;23.286;2023-02-22T11:08:23;94895.25;;;18.43;29.87
69524;BME280;56723;42.694;23.286;2023-02-22T11:10:52;94889.75;;;18.26;29.73
69524;BME280;56723;42.694;23.286;2023-02-22T11:13:32;94889.50;;;18.09;30.56
69524;BME280;56723;42.694;23.286;2023-02-22T11:16:16;94883.72;;;18.25;29.26
69524;BME280;56723;42.694;23.286;2023-02-22T11:18:46;94879.81;;;18.10;29.36
69524;BME280;56723;42.694;23.286;2023-02-22T11:21:20;94878.88;;;18.22;29.21
69524;BME280;56723;42.694;23.286;2023-02-22T11:23:48;94874.06;;;18.19;28.62
69524;BME280;56723;42.694;23.286;2023-02-22T11:26:17;94875.19;;;18.30;28.26
69524;BME280;56723;42.694;23.286;2023-02-22T11:28:50;94871.69;;;18.18;28.46
69524;BME280;56723;42.694;23.286;2023-02-22T11:31:24;94865.19;;;18.20;28.30
69524;BME280;56723;42.694;23.286;2023-02-22T11:33:54;94858.38;;;18.56;28.40
69524;BME280;56723;42.694;23.286;2023-02-22T11:36:41;94853.16;;;18.74;27.28
69524;BME280;56723;42.694;23.286;2023-02-22T11:39:22;94857.41;;;18.75;27.27
69524;BME280;56723;42.694;23.286;2023-02-22T11:41:50;94856.69;;;18.86;27.64
69524;BME280;56723;42.694;23.286;2023-02-22T11:44:31;94857.81;;;19.09;26.43
69524;BME280;56723;42.694;23.286;2023-02-22T11:47:01;94851.25;;;18.99;26.75
69524;BME280;56723;42.694;23.286;2023-02-22T11:49:35;94851.88;;;18.83;26.90
69524;BME280;56723;42.694;23.286;2023-02-22T12:14:04;94826.59;;;19.00;26.26
69524;BME280;56723;42.694;23.286;2023-02-22T12:22:16;94819.53;;;19.01;26.33
69524;BME280;56723;42.694;23.286;2023-02-22T12:24:48;94808.22;;;19.00;26.17
69524;BME280;56723;42.694;23.286;2023-02-22T12:27:46;94810.78;;;19.07;26.33
69524;BME280;56723;42.694;23.286;2023-02-22T12:30:25;94808.50;;;19.11;26.12
69524;BME280;56723;42.694;23.286;2023-02-22T12:32:56;94810.22;;;19.17;26.18
69524;BME280;56723;42.694;23.286;2023-02-22T12:35:36;94798.78;;;19.11;26.15
69524;BME280;56723;42.694;23.286;2023-02-22T12:38:12;94797.13;;;18.98;26.14
69524;BME280;56723;42.694;23.286;2023-02-22T12:43:25;94804.47;;;19.38;26.05
69524;BME280;56723;42.694;23.286;2023-02-22T12:51:28;94797.00;;;19.53;25.63
69524;BME280;56723;42.694;23.286;2023-02-22T12:59:02;94788.88;;;19.55;26.09
69524;BME280;56723;42.694;23.286;2023-02-22T13:01:43;94782.59;;;19.67;26.31
69524;BME280;56723;42.694;23.286;2023-02-22T13:04:11;94795.66;;;19.62;25.65
69524;BME280;56723;42.694;23.286;2023-02-22T13:12:15;94786.97;;;19.74;24.71
69524;BME280;56723;42.694;23.286;2023-02-22T13:17:38;94783.09;;;19.88;24.67
69524;BME280;56723;42.694;23.286;2023-02-22T13:28:35;94777.56;;;19.54;25.78
69524;BME280;56723;42.694;23.286;2023-02-22T13:34:37;94784.34;;;19.62;25.97
69524;BME280;56723;42.694;23.286;2023-02-22T13:37:22;94781.72;;;19.74;25.71
69524;BME280;56723;42.694;23.286;2023-02-22T13:43:05;94774.06;;;20.07;25.96
69524;BME280;56723;42.694;23.286;2023-02-22T13:56:45;94759.28;;;20.29;25.49
69524;BME280;56723;42.694;23.286;2023-02-22T14:01:55;94761.78;;;20.24;25.31
69524;BME280;56723;42.694;23.286;2023-02-22T14:18:02;94778.97;;;20.15;25.82
69524;BME280;56723;42.694;23.286;2023-02-22T14:20:36;94759.38;;;20.23;25.20
69524;BME280;56723;42.694;23.286;2023-02-22T14:23:31;94761.00;;;20.24;25.08
69524;BME280;56723;42.694;23.286;2023-02-22T14:26:16;94760.31;;;20.05;25.31
69524;BME280;56723;42.694;23.286;2023-02-22T14:29:02;94763.09;;;19.98;25.18
69524;BME280;56723;42.694;23.286;2023-02-22T14:34:10;94763.91;;;19.99;26.48
69524;BME280;56723;42.694;23.286;2023-02-22T14:39:36;94761.13;;;19.94;26.83
69524;BME280;56723;42.694;23.286;2023-02-22T14:42:22;94757.72;;;20.17;26.33
69524;BME280;56723;42.694;23.286;2023-02-22T14:47:52;94766.16;;;19.60;25.98
69524;BME280;56723;42.694;23.286;2023-02-22T14:53:36;94760.09;;;19.18;26.45
69524;BME280;56723;42.694;23.286;2023-02-22T14:56:13;94763.59;;;19.00;26.71
69524;BME280;56723;42.694;23.286;2023-02-22T14:58:50;94765.94;;;19.20;26.31
69524;BME280;56723;42.694;23.286;2023-02-22T15:03:45;94760.81;;;19.25;26.93
69524;BME280;56723;42.694;23.286;2023-02-22T15:06:22;94765.31;;;19.07;27.46
69524;BME280;56723;42.694;23.286;2023-02-22T15:09:05;94758.69;;;19.04;27.85
69524;BME280;56723;42.694;23.286;2023-02-22T15:11:33;94765.69;;;19.10;28.10
69524;BME280;56723;42.694;23.286;2023-02-22T15:14:01;94759.69;;;18.91;28.45
69524;BME280;56723;42.694;23.286;2023-02-22T15:16:31;94764.47;;;18.94;28.46
69524;BME280;56723;42.694;23.286;2023-02-22T15:19:03;94761.84;;;18.94;28.58
69524;BME280;56723;42.694;23.286;2023-02-22T15:21:34;94762.63;;;18.47;29.26
69524;BME280;56723;42.694;23.286;2023-02-22T15:24:03;94766.00;;;18.17;29.61
69524;BME280;56723;42.694;23.286;2023-02-22T15:29:28;94768.25;;;17.71;30.50
69524;BME280;56723;42.694;23.286;2023-02-22T15:31:57;94761.66;;;17.30;31.38
69524;BME280;56723;42.694;23.286;2023-02-22T15:34:29;94761.06;;;17.03;31.81
69524;BME280;56723;42.694;23.286;2023-02-22T15:37:11;94767.03;;;16.79;32.06
69524;BME280;56723;42.694;23.286;2023-02-22T15:39:38;94772.75;;;16.56;32.44
69524;BME280;56723;42.694;23.286;2023-02-22T15:42:13;94768.97;;;16.39;33.05
69524;BME280;56723;42.694;23.286;2023-02-22T15:44:50;94778.47;;;16.26;33.21
69524;BME280;56723;42.694;23.286;2023-02-22T15:47:26;94776.53;;;16.09;33.55
69524;BME280;56723;42.694;23.286;2023-02-22T15:53:20;94776.75;;;15.87;34.01
69524;BME280;56723;42.694;23.286;2023-02-22T15:55:55;94786.19;;;15.82;34.34
69524;BME280;56723;42.694;23.286;2023-02-22T15:58:24;94771.94;;;15.65;34.36
69524;BME280;56723;42.694;23.286;2023-02-22T16:01:03;94789.44;;;15.64;34.73
69524;BME280;56723;42.694;23.286;2023-02-22T16:03:39;94791.03;;;15.52;34.93
69524;BME280;56723;42.694;23.286;2023-02-22T16:06:37;94789.22;;;15.39;35.35
69524;BME280;56723;42.694;23.286;2023-02-22T16:09:11;94802.66;;;15.30;35.42
69524;BME280;56723;42.694;23.286;2023-02-22T16:11:41;94796.59;;;15.22;35.50
69524;BME280;56723;42.694;23.286;2023-02-22T16:14:24;94805.44;;;15.15;35.75
69524;BME280;56723;42.694;23.286;2023-02-22T16:19:57;94805.81;;;14.99;36.04
69524;BME280;56723;42.694;23.286;2023-02-22T16:22:26;94810.19;;;14.92;36.29
69524;BME280;56723;42.694;23.286;2023-02-22T16:27:48;94816.56;;;14.76;36.66
69524;BME280;56723;42.694;23.286;2023-02-22T16:32:59;94815.88;;;14.54;37.20
69524;BME280;56723;42.694;23.286;2023-02-22T16:35:31;94815.25;;;14.45;37.17
69524;BME280;56723;42.694;23.286;2023-02-22T16:38:03;94823.66;;;14.41;37.59
69524;BME280;56723;42.694;23.286;2023-02-22T16:40:33;94821.16;;;14.33;37.81
69524;BME280;56723;42.694;23.286;2023-02-22T16:43:06;94825.94;;;14.23;37.99
69524;BME280;56723;42.694;23.286;2023-02-22T16:45:33;94828.69;;;14.14;38.29
69524;BME280;56723;42.694;23.286;2023-02-22T16:48:11;94830.59;;;13.99;38.56
69524;BME280;56723;42.694;23.286;2023-02-22T16:50:40;94828.72;;;13.86;38.82
69524;BME280;56723;42.694;23.286;2023-02-22T16:53:07;94832.00;;;13.74;39.12
69524;BME280;56723;42.694;23.286;2023-02-22T16:55:34;94833.88;;;13.59;39.47
69524;BME280;56723;42.694;23.286;2023-02-22T16:58:04;94832.44;;;13.49;39.70
69524;BME280;56723;42.694;23.286;2023-02-22T17:00:31;94838.56;;;13.42;40.08
69524;BME280;56723;42.694;23.286;2023-02-22T17:03:02;94836.50;;;13.37;40.20
69524;BME280;56723;42.694;23.286;2023-02-22T17:05:32;94845.63;;;13.27;40.49
69524;BME280;56723;42.694;23.286;2023-02-22T17:08:03;94847.16;;;13.21;40.79
69524;BME280;56723;42.694;23.286;2023-02-22T17:10:31;94846.66;;;13.11;40.95
69524;BME280;56723;42.694;23.286;2023-02-22T17:12:58;94844.94;;;13.03;41.43
69524;BME280;56723;42.694;23.286;2023-02-22T17:15:34;94842.03;;;12.92;41.69
69524;BME280;56723;42.694;23.286;2023-02-22T17:18:09;94851.63;;;12.91;41.62
69524;BME280;56723;42.694;23.286;2023-02-22T17:20:37;94858.91;;;12.81;42.03
69524;BME280;56723;42.694;23.286;2023-02-22T17:23:06;94856.25;;;12.74;42.11
69524;BME280;56723;42.694;23.286;2023-02-22T17:28:05;94865.22;;;12.57;42.54
69524;BME280;56723;42.694;23.286;2023-02-22T17:30:32;94858.31;;;12.49;42.71
69524;BME280;56723;42.694;23.286;2023-02-22T17:33:04;94865.66;;;12.46;42.67
69524;BME280;56723;42.694;23.286;2023-02-22T17:35:34;94859.66;;;12.45;42.86
69524;BME280;56723;42.694;23.286;2023-02-22T17:38:04;94863.47;;;12.43;42.85
69524;BME280;56723;42.694;23.286;2023-02-22T17:40:33;94870.63;;;12.41;43.01
69524;BME280;56723;42.694;23.286;2023-02-22T17:43:01;94868.56;;;12.36;43.21
69524;BME280;56723;42.694;23.286;2023-02-22T17:45:29;94875.72;;;12.34;43.25
69524;BME280;56723;42.694;23.286;2023-02-22T17:47:56;94861.66;;;12.29;43.46
69524;BME280;56723;42.694;23.286;2023-02-22T17:50:25;94867.66;;;12.29;43.44
69524;BME280;56723;42.694;23.286;2023-02-22T17:52:52;94877.22;;;12.29;43.50
69524;BME280;56723;42.694;23.286;2023-02-22T17:55:20;94869.78;;;12.26;43.28
69524;BME280;56723;42.694;23.286;2023-02-22T17:57:52;94870.34;;;12.21;43.83